Flight Track Log - Related Links

Times and Time Zones

All times are in EDT time to prevent confusion due to time zone crossing. See the SWA1021 flight status page for this flight to view local times or setup timezone preferences in your user account.

Time Position Orientation Groundspeed Altitude Reporting Facility
EDT Latitude Longitude Course Direction KTS MPH feet Rate Location/Type
Sat 02:39:35 PM 39.8667 -75.2833 270° West 179 206 900  Level Philadelphia TRACON
Sat 02:41:52 PM 39.8239 -75.4739 254° West 242 278 6,000 2,352 Climbing New York Center
Sat 02:42:54 PM 39.8178 -75.5683 265° West 261 300 8,700 2,331 Climbing New York Center
Sat 02:43:53 PM 39.8308 -75.6611 280° West 283 326 10,700 1,831 Climbing New York Center
Sat 02:44:52 PM 39.8500 -75.7975 280° West 334 384 12,300 1,900 Climbing New York Center
Sat 02:45:00 PM 39.9000 -76.1459 270° West  Level FlightAware Approximate
Sat 02:45:53 PM 39.8700 -75.9125 283° West 363 418 14,500  Level New York Center
Sat 02:46:53 PM 39.8536 -76.0467 261° West 370 426 16,600 1,983 Climbing New York Center
Sat 02:47:54 PM 39.8156 -76.1981 252° West 392 451 18,500 1,750 Climbing New York Center
Sat 02:48:53 PM 39.7822 -76.3331 252° West 415 478 20,100 1,776 Climbing New York Center
Sat 02:49:59 PM 39.7419 -76.4900 252° West 416 479 22,200 1,734 Climbing Washington Center
Sat 02:51:01 PM 39.7017 -76.6475 252° West 429 494 23,800 1,426 Climbing Washington Center
Sat 02:52:01 PM 39.6625 -76.7983 251° West 439 505 25,100 1,210 Climbing Washington Center
Sat 02:53:05 PM 39.6231 -76.9553 252° West 453 521 26,300 1,056 Climbing Washington Center
Sat 02:54:06 PM 39.5814 -77.1136 251° West 463 533 27,300 1,200 Climbing Washington Center
Sat 02:55:10 PM 39.5300 -77.3083 251° West 476 548 28,800 1,429 Climbing Washington Center
Sat 02:56:12 PM 39.4881 -77.4689 251° West 476 548 30,300 1,230 Climbing Washington Center
Sat 02:57:12 PM 39.4458 -77.6289 251° West 474 545 31,300 968 Climbing Washington Center
Sat 02:58:16 PM 39.4022 -77.7881 251° West 474 545 32,300 1,008 Climbing Washington Center
Sat 02:59:17 PM 39.3497 -77.9431 246° West 475 547 33,400 816 Climbing Washington Center
Sat 03:00:21 PM 39.2772 -78.1231 243° Southwest 475 547 34,000 290 Climbing Washington Center
Sat 03:01:21 PM 39.2175 -78.2711 243° Southwest 474 545 34,000  Level Washington Center
Sat 03:02:24 PM 39.1569 -78.4203 242° Southwest 474 545 34,000  Level Washington Center
Sat 03:03:28 PM 39.0989 -78.5667 243° Southwest 466 536 34,000  Level Washington Center
Sat 03:05:30 PM 38.9697 -78.8825 242° Southwest 454 522 34,000  Level Washington Center
Sat 03:06:34 PM 38.9106 -79.0264 242° Southwest 455 524 34,000  Level Washington Center
Sat 03:07:34 PM 38.8528 -79.1678 242° Southwest 452 520 34,000  Level Washington Center
Sat 03:08:38 PM 38.8192 -79.3197 254° West 441 507 34,000  Level Washington Center
Sat 03:09:38 PM 38.7914 -79.4711 257° West 442 509 34,000  Level Washington Center
Sat 03:10:42 PM 38.7636 -79.6261 257° West 438 504 34,000  Level Washington Center
Sat 03:11:43 PM 38.7294 -79.8061 256° West 437 503 34,000  Level Washington Center
Sat 03:12:18 PM 38.7114 -79.8967 256° West 439 505 34,000  Level Indianapolis Center
Sat 03:13:20 PM 38.6839 -80.0475 257° West 438 504 34,000  Level Indianapolis Center
Sat 03:14:21 PM 38.6572 -80.1975 257° West 433 498 34,000  Level Indianapolis Center
Sat 03:15:23 PM 38.6283 -80.3450 256° West 431 496 34,000  Level Indianapolis Center
Sat 03:16:24 PM 38.6006 -80.4939 257° West 430 495 34,000  Level Indianapolis Center
Sat 03:17:26 PM 38.5719 -80.6444 256° West 431 496 34,000  Level Indianapolis Center
Sat 03:18:27 PM 38.5619 -80.7986 265° West 433 498 34,000  Level Indianapolis Center
Sat 03:19:29 PM 38.5417 -80.9497 260° West 434 499 34,000  Level Indianapolis Center
Sat 03:20:30 PM 38.4989 -81.0969 250° West 438 504 34,000  Level Indianapolis Center
Sat 03:21:32 PM 38.4567 -81.2442 250° West 438 504 34,000  Level Indianapolis Center
Sat 03:22:33 PM 38.4156 -81.3925 251° West 438 504 34,000  Level Indianapolis Center
Sat 03:23:35 PM 38.3722 -81.5406 250° West 438 504 34,000  Level Indianapolis Center
Sat 03:24:36 PM 38.3228 -81.7153 250° West 438 504 34,000  Level Indianapolis Center
Sat 03:25:38 PM 38.2817 -81.8600 250° West 437 503 34,000  Level Indianapolis Center
Sat 03:26:39 PM 38.2458 -82.0044 253° West 432 497 34,000  Level Indianapolis Center
Sat 03:27:41 PM 38.2303 -82.1550 263° West 429 494 34,000  Level Indianapolis Center
Sat 03:28:42 PM 38.2161 -82.3033 263° West 427 491 34,000  Level Indianapolis Center
Sat 03:29:44 PM 38.2031 -82.4531 264° West 427 491 34,000  Level Indianapolis Center
Sat 03:30:45 PM 38.1917 -82.6108 265° West 426 490 34,000  Level Indianapolis Center
Sat 03:31:47 PM 38.1842 -82.7639 266° West 428 493 34,000  Level Indianapolis Center
Sat 03:32:48 PM 38.1808 -82.9158 268° West 430 495 34,000  Level Indianapolis Center
Sat 03:33:50 PM 38.1847 -83.0667 272° West 430 495 34,000  Level Indianapolis Center
Sat 03:34:51 PM 38.1881 -83.2172 272° West 429 494 34,000  Level Indianapolis Center
Sat 03:35:53 PM 38.1919 -83.3908 272° West 427 491 34,000  Level Indianapolis Center
Sat 03:36:54 PM 38.1953 -83.5408 272° West 426 490 34,000  Level Indianapolis Center
Sat 03:37:56 PM 38.1983 -83.6914 272° West 426 490 34,000  Level Indianapolis Center
Sat 03:38:57 PM 38.2028 -83.8428 272° West 426 490 34,000  Level Indianapolis Center
Sat 03:39:59 PM 38.2078 -83.9942 272° West 427 491 34,000  Level Indianapolis Center
Sat 03:41:00 PM 38.2142 -84.1472 273° West 427 491 34,000 488 Level Indianapolis Center
Sat 03:42:02 PM 38.2208 -84.3000 273° West 430 495 35,000 488 Climbing Indianapolis Center
Sat 03:43:03 PM 38.2217 -84.4744 270° West 429 494 35,000  Level Indianapolis Center
Sat 03:44:04 PM 38.1697 -84.6064 243° Southwest 422 486 35,000  Level Indianapolis Center
Sat 03:45:06 PM 38.1142 -84.7378 242° Southwest 422 486 35,000  Level Indianapolis Center
Sat 03:46:07 PM 38.0608 -84.8711 243° Southwest 422 486 35,000  Level Indianapolis Center
Sat 03:47:09 PM 38.0056 -85.0042 242° Southwest 423 487 35,000  Level Indianapolis Center
Sat 03:48:10 PM 37.9725 -85.1492 254° West 428 493 35,000  Level Indianapolis Center
Sat 03:49:11 PM 37.9592 -85.2997 264° West 426 490 35,000  Level Indianapolis Center
Sat 03:50:13 PM 37.9464 -85.4494 264° West 426 490 35,000  Level Indianapolis Center
Sat 03:51:14 PM 37.9297 -85.5989 262° West 426 490 35,000  Level Indianapolis Center
Sat 03:52:16 PM 37.9086 -85.7481 260° West 426 490 35,000  Level Indianapolis Center
Sat 03:53:17 PM 37.8819 -85.8953 257° West 426 490 35,000  Level Indianapolis Center
Sat 03:54:19 PM 37.8300 -86.0636 249° West 427 491 35,000 351 Level Indianapolis Center
Sat 03:56:08 PM 37.7150 -86.2917 238° Southwest 427 491 36,000 351 Climbing Memphis Center
Sat 03:57:10 PM 37.6539 -86.4225 239° Southwest 427 491 36,000  Level Memphis Center
Sat 03:58:12 PM 37.5931 -86.5514 239° Southwest 427 491 36,000  Level Memphis Center
Sat 03:59:14 PM 37.5317 -86.6789 239° Southwest 426 490 36,000  Level Memphis Center
Sat 04:00:27 PM 37.4603 -86.8278 239° Southwest 427 491 36,000  Level Indianapolis Center
Sat 04:01:28 PM 37.3994 -86.9539 239° Southwest 425 489 36,000  Level Indianapolis Center
Sat 04:02:19 PM 37.3486 -87.0611 239° Southwest 424 488 36,000  Level Memphis Center
Sat 04:03:20 PM 37.2875 -87.1875 239° Southwest 424 488 36,000  Level Memphis Center
Sat 04:04:22 PM 37.2164 -87.3347 239° Southwest 423 487 36,000  Level Memphis Center
Sat 04:05:24 PM 37.1547 -87.4600 238° Southwest 423 487 36,000  Level Memphis Center
Sat 04:06:25 PM 37.0928 -87.5856 238° Southwest 423 487 36,000  Level Memphis Center
Sat 04:07:27 PM 37.0308 -87.7103 238° Southwest 422 486 36,000  Level Memphis Center
Sat 04:08:28 PM 36.9703 -87.8372 239° Southwest 421 484 36,000  Level Memphis Center
Sat 04:09:30 PM 36.9069 -87.9611 237° Southwest 422 486 36,000  Level Memphis Center
Sat 04:10:32 PM 36.8461 -88.0867 239° Southwest 422 486 36,000  Level Memphis Center
Sat 04:11:33 PM 36.7864 -88.2072 238° Southwest 422 486 36,000  Level Memphis Center
Sat 04:12:35 PM 36.7297 -88.3667 246° West 421 484 36,000  Level Memphis Center
Sat 04:13:36 PM 36.6833 -88.4986 246° West 420 483 36,000  Level Memphis Center
Sat 04:14:38 PM 36.6356 -88.6325 246° West 420 483 36,000  Level Memphis Center
Sat 04:15:40 PM 36.5867 -88.7661 246° West 421 484 36,000  Level Memphis Center
Sat 04:16:41 PM 36.5378 -88.8994 246° West 421 484 36,000  Level Memphis Center
Sat 04:17:43 PM 36.4889 -89.0331 246° West 423 487 36,000  Level Memphis Center
Sat 04:18:45 PM 36.4636 -89.1764 258° West 432 497 36,000  Level Memphis Center
Sat 04:19:46 PM 36.4344 -89.3433 258° West 432 497 36,000  Level Memphis Center
Sat 04:20:48 PM 36.4061 -89.4897 257° West 433 498 36,000  Level Memphis Center
Sat 04:21:50 PM 36.4117 -89.6378 273° West 437 503 36,000  Level Memphis Center
Sat 04:22:51 PM 36.4394 -89.7886 283° West 442 509 36,000  Level Memphis Center
Sat 04:23:53 PM 36.4336 -89.9361 267° West 440 506 36,000  Level Memphis Center
Sat 04:24:55 PM 36.3958 -90.1075 255° West 432 497 36,000  Level Memphis Center
Sat 04:25:56 PM 36.3661 -90.2511 256° West 432 497 36,000  Level Memphis Center
Sat 04:26:58 PM 36.3369 -90.3950 256° West 432 497 36,000  Level Memphis Center
Sat 04:28:00 PM 36.3072 -90.5383 256° West 432 497 36,000  Level Memphis Center
Sat 04:29:01 PM 36.2767 -90.6819 255° West 432 497 36,000  Level Memphis Center
Sat 04:30:03 PM 36.2458 -90.8256 255° West 431 496 36,000  Level Memphis Center
Sat 04:31:04 PM 36.2156 -90.9694 255° West 432 497 36,000  Level Memphis Center
Sat 04:32:06 PM 36.1844 -91.1133 255° West 432 497 36,000  Level Memphis Center
Sat 04:33:08 PM 36.1464 -91.2872 255° West 433 498 36,000  Level Memphis Center
Sat 04:34:09 PM 36.1161 -91.4319 256° West 433 498 36,000  Level Memphis Center
Sat 04:35:11 PM 36.0825 -91.5764 254° West 434 499 36,000  Level Memphis Center
Sat 04:36:12 PM 36.0431 -91.7172 251° West 434 499 36,000  Level Memphis Center
Sat 04:37:14 PM 35.9844 -91.8469 241° Southwest 434 499 36,000  Level Memphis Center
Sat 04:38:15 PM 35.9317 -91.9744 243° Southwest 434 499 36,000  Level Memphis Center
Sat 04:39:17 PM 35.8772 -92.1069 243° Southwest 434 499 36,000  Level Memphis Center
Sat 04:40:19 PM 35.8114 -92.2658 243° Southwest 434 499 36,000  Level Memphis Center
Sat 04:41:20 PM 35.7539 -92.3964 242° Southwest 434 499 36,000  Level Memphis Center
Sat 04:42:22 PM 35.6989 -92.5281 243° Southwest 434 499 36,000  Level Memphis Center
Sat 04:43:23 PM 35.6642 -92.6717 253° West 441 507 36,000  Level Memphis Center
Sat 04:44:25 PM 35.6339 -92.8214 256° West 440 506 36,000  Level Memphis Center
Sat 04:45:26 PM 35.6042 -92.9681 256° West 440 506 36,000  Level Memphis Center
Sat 04:46:28 PM 35.5742 -93.1164 256° West 446 513 36,000  Level Memphis Center
Sat 04:47:30 PM 35.5625 -93.2703 265° West 454 522 36,000  Level Memphis Center
Sat 04:48:31 PM 35.5506 -93.4403 265° West 453 521 36,000  Level Memphis Center
Sat 04:49:33 PM 35.5394 -93.5950 265° West 454 522 36,000  Level Memphis Center
Sat 04:50:34 PM 35.5272 -93.7514 265° West 455 524 36,000  Level Memphis Center
Sat 04:51:36 PM 35.5150 -93.9067 265° West 457 526 36,000  Level Memphis Center
Sat 04:52:38 PM 35.4997 -94.0950 264° West 458 527 36,000  Level Memphis Center
Sat 04:53:39 PM 35.4875 -94.2508 265° West 459 528 36,000  Level Memphis Center
Sat 04:54:41 PM 35.4781 -94.3875 265° West 459 528 36,000  Level Memphis Center
Sat 04:55:43 PM 35.4631 -94.5739 264° West 458 527 36,000  Level Memphis Center
Sat 04:56:44 PM 35.4492 -94.7311 264° West 458 527 36,000  Level Memphis Center
Sat 04:57:46 PM 35.4369 -94.8856 264° West 458 527 36,000  Level Memphis Center
Sat 04:58:48 PM 35.4236 -95.0397 264° West 458 527 36,000  Level Memphis Center
Sat 04:59:50 PM 35.4108 -95.1933 264° West 456 525 36,000  Level Memphis Center
Sat 05:00:51 PM 35.4014 -95.3469 266° West 456 525 36,000  Level Memphis Center
Sat 05:01:53 PM 35.4075 -95.5022 273° West 454 522 36,000  Level Memphis Center
Sat 05:02:47 PM 35.4106 -95.6581 271° West 452 520 36,000  Level Kansas City Center
Sat 05:03:19 PM 35.4117 -95.7217 271° West 470 541 36,000  Level Fort Worth Center
Sat 05:04:21 PM 35.4136 -95.9064 271° West 455 524 36,000  Level Fort Worth Center
Sat 05:05:23 PM 35.3853 -96.0603 257° West 459 528 36,000  Level Fort Worth Center
Sat 05:06:26 PM 35.3572 -96.2150 258° West 461 531 36,000  Level Fort Worth Center
Sat 05:07:28 PM 35.3292 -96.3706 258° West 467 537 36,000  Level Fort Worth Center
Sat 05:08:30 PM 35.3111 -96.5219 262° West 447 514 36,000  Level Fort Worth Center
Sat 05:09:32 PM 35.3106 -96.6792 270° West 459 528 36,000  Level Fort Worth Center
Sat 05:10:34 PM 35.3072 -96.8675 269° West 459 528 36,000  Level Fort Worth Center
Sat 05:11:36 PM 35.3119 -97.0242 272° West 459 528 36,000  Level Fort Worth Center
Sat 05:12:38 PM 35.3161 -97.1858 272° West 463 533 36,000  Level Fort Worth Center
Sat 05:13:40 PM 35.3200 -97.3400 272° West 461 531 36,000  Level Fort Worth Center
Sat 05:14:42 PM 35.3231 -97.4911 271° West 448 516 36,000  Level Fort Worth Center
Sat 05:15:44 PM 35.3250 -97.6517 271° West 447 514 36,000  Level Fort Worth Center
Sat 05:16:47 PM 35.3278 -97.8011 271° West 442 509 36,000  Level Fort Worth Center
Sat 05:17:49 PM 35.3308 -97.9486 271° West 440 506 36,000  Level Fort Worth Center
Sat 05:18:51 PM 35.3328 -98.0964 271° West 438 504 36,000  Level Fort Worth Center
Sat 05:19:53 PM 35.3353 -98.2728 271° West 436 502 36,000  Level Fort Worth Center
Sat 05:20:55 PM 35.3369 -98.4200 271° West 436 502 36,000  Level Fort Worth Center
Sat 05:21:57 PM 35.3381 -98.5625 271° West 435 501 36,000  Level Fort Worth Center
Sat 05:22:59 PM 35.3397 -98.7119 271° West 435 501 36,000  Level Fort Worth Center
Sat 05:24:01 PM 35.3406 -98.8600 270° West 435 501 36,000  Level Fort Worth Center
Sat 05:25:03 PM 35.3411 -99.0400 270° West 435 501 36,000  Level Fort Worth Center
Sat 05:26:05 PM 35.3414 -99.1906 270° West 436 502 36,000  Level Fort Worth Center
Sat 05:27:08 PM 35.3428 -99.3425 271° West 440 506 36,000  Level Fort Worth Center
Sat 05:28:10 PM 35.3419 -99.4931 270° West 441 507 36,000  Level Fort Worth Center
Sat 05:29:12 PM 35.3428 -99.6433 270° West 441 507 36,000  Level Fort Worth Center
Sat 05:30:14 PM 35.3422 -99.7914 270° West 438 504 36,000  Level Fort Worth Center
Sat 05:31:06 PM 35.3428 -99.9092 270° West 437 503 36,000  Level Albuquerque Center
Sat 05:32:07 PM 35.3419 -100.0839 270° West 430 495 36,000  Level Albuquerque Center
Sat 05:33:09 PM 35.3411 -100.2275 270° West 426 490 36,000  Level Albuquerque Center
Sat 05:34:11 PM 35.3406 -100.3717 270° West 425 489 36,000  Level Albuquerque Center
Sat 05:35:13 PM 35.3400 -100.5153 270° West 423 487 36,000  Level Albuquerque Center
Sat 05:36:15 PM 35.3375 -100.6581 269° West 422 486 36,000  Level Albuquerque Center
Sat 05:37:16 PM 35.3375 -100.7936 270° West 420 483 36,000  Level Albuquerque Center
Sat 05:38:18 PM 35.3350 -100.9639 269° West 420 483 36,000  Level Albuquerque Center
Sat 05:39:20 PM 35.3333 -101.1061 269° West 420 483 36,000  Level Albuquerque Center
Sat 05:40:22 PM 35.3314 -101.2475 269° West 420 483 36,000  Level Albuquerque Center
Sat 05:41:23 PM 35.3306 -101.4017 270° West 420 483 36,000  Level Albuquerque Center
Sat 05:42:25 PM 35.3286 -101.5436 269° West 420 483 36,000  Level Albuquerque Center
Sat 05:43:27 PM 35.3272 -101.6781 269° West 420 483 36,000  Level Albuquerque Center
Sat 05:44:28 PM 35.3244 -101.8219 269° West 419 482 36,000  Level Albuquerque Center
Sat 05:45:30 PM 35.3183 -101.9756 267° West 419 482 36,000  Level Albuquerque Center
Sat 05:46:32 PM 35.3144 -102.1189 268° West 422 486 36,000  Level Albuquerque Center
Sat 05:47:33 PM 35.3114 -102.2614 269° West 422 486 36,000  Level Albuquerque Center
Sat 05:48:35 PM 35.3081 -102.4344 269° West 423 487 36,000  Level Albuquerque Center
Sat 05:49:37 PM 35.3044 -102.5789 268° West 424 488 36,000  Level Albuquerque Center
Sat 05:50:38 PM 35.3019 -102.7156 269° West 424 488 36,000  Level Albuquerque Center
Sat 05:51:40 PM 35.3000 -102.8606 269° West 424 488 36,000  Level Albuquerque Center
Sat 05:52:41 PM 35.2950 -103.0044 268° West 423 487 36,000  Level Albuquerque Center
Sat 05:53:43 PM 35.2917 -103.1486 268° West 422 486 36,000  Level Albuquerque Center
Sat 05:54:45 PM 35.2875 -103.2925 268° West 422 486 36,000  Level Albuquerque Center
Sat 05:55:46 PM 35.2819 -103.4614 268° West 422 486 36,000  Level Albuquerque Center
Sat 05:56:48 PM 35.2767 -103.6056 267° West 422 486 36,000  Level Albuquerque Center
Sat 05:57:49 PM 35.2719 -103.7517 268° West 423 487 36,000  Level Albuquerque Center
Sat 05:58:51 PM 35.2667 -103.8986 268° West 427 491 36,000  Level Albuquerque Center
Sat 05:59:52 PM 35.2608 -104.0478 267° West 432 497 36,000  Level Albuquerque Center
Sat 06:00:54 PM 35.2556 -104.1925 267° West 432 497 36,000  Level Albuquerque Center
Sat 06:01:56 PM 35.2506 -104.3369 268° West 428 493 36,000  Level Albuquerque Center
Sat 06:02:57 PM 35.2433 -104.4828 267° West 428 493 36,000  Level Albuquerque Center
Sat 06:03:59 PM 35.2367 -104.6472 267° West 428 493 36,000  Level Albuquerque Center
Sat 06:05:00 PM 35.2300 -104.7947 267° West 429 494 36,000  Level Albuquerque Center
Sat 06:06:02 PM 35.2239 -104.9417 267° West 429 494 36,000  Level Albuquerque Center
Sat 06:07:03 PM 35.2175 -105.0886 267° West 429 494 36,000  Level Albuquerque Center
Sat 06:08:05 PM 35.2106 -105.2336 267° West 429 494 36,000  Level Albuquerque Center
Sat 06:09:07 PM 35.2031 -105.3797 266° West 428 493 36,000  Level Albuquerque Center
Sat 06:10:08 PM 35.1969 -105.5256 267° West 428 493 36,000  Level Albuquerque Center
Sat 06:11:10 PM 35.1894 -105.6769 267° West 428 493 36,000  Level Albuquerque Center
Sat 06:12:12 PM 35.1806 -105.8236 266° West 428 493 36,000  Level Albuquerque Center
Sat 06:13:13 PM 35.1731 -105.9706 266° West 428 493 36,000  Level Albuquerque Center
Sat 06:14:15 PM 35.1650 -106.1169 266° West 428 493 36,000  Level Albuquerque Center
Sat 06:15:16 PM 35.1575 -106.2644 266° West 429 494 36,000  Level Albuquerque Center
Sat 06:16:18 PM 35.1489 -106.4394 267° West 429 494 36,000  Level Albuquerque Center
Sat 06:17:20 PM 35.1428 -106.5892 267° West 430 495 36,000  Level Albuquerque Center
Sat 06:18:21 PM 35.1336 -106.7350 266° West 434 499 36,000  Level Albuquerque Center
Sat 06:19:23 PM 35.1236 -106.8886 265° West 427 491 36,000  Level Albuquerque Center
Sat 06:20:25 PM 35.1167 -107.0311 267° West 424 488 36,000  Level Albuquerque Center
Sat 06:21:26 PM 35.1336 -107.1725 278° West 422 486 36,000  Level Albuquerque Center
Sat 06:22:28 PM 35.1486 -107.3131 277° West 421 484 36,000  Level Albuquerque Center
Sat 06:23:30 PM 35.1636 -107.4458 278° West 415 478 36,000  Level Albuquerque Center
Sat 06:24:31 PM 35.1783 -107.6047 277° West 420 483 36,000  Level Albuquerque Center
Sat 06:25:33 PM 35.1933 -107.7389 278° West 420 483 36,000  Level Albuquerque Center
Sat 06:26:34 PM 35.2103 -107.8931 278° West 413 475 36,000  Level Albuquerque Center
Sat 06:27:36 PM 35.2244 -108.0272 277° West 413 475 36,000  Level Albuquerque Center
Sat 06:28:38 PM 35.2411 -108.1803 278° West 411 473 36,000  Level Albuquerque Center
Sat 06:29:39 PM 35.2281 -108.3078 263° West 406 467 36,000  Level Albuquerque Center
Sat 06:30:41 PM 35.1867 -108.4356 248° West 411 473 36,000  Level Albuquerque Center
Sat 06:31:43 PM 35.1378 -108.5822 248° West 412 474 36,000  Level Albuquerque Center
Sat 06:32:44 PM 35.0958 -108.7067 248° West 412 474 36,000  Level Albuquerque Center
Sat 06:33:46 PM 35.0467 -108.8572 248° West 419 482 36,000  Level Albuquerque Center
Sat 06:34:48 PM 35.0044 -108.9806 247° West 418 481 36,000  Level Albuquerque Center
Sat 06:35:49 PM 34.9614 -109.1078 248° West 418 481 36,000  Level Albuquerque Center
Sat 06:36:51 PM 34.9106 -109.2575 248° West 421 484 36,000  Level Albuquerque Center
Sat 06:37:53 PM 34.8678 -109.3858 248° West 422 486 36,000  Level Albuquerque Center
Sat 06:38:54 PM 34.8167 -109.5375 248° West 429 494 36,000  Level Albuquerque Center
Sat 06:39:56 PM 34.7739 -109.6658 248° West 429 494 36,000  Level Albuquerque Center
Sat 06:40:58 PM 34.7292 -109.7953 247° West 429 494 36,000  Level Albuquerque Center
Sat 06:41:59 PM 34.6761 -109.9461 247° West 430 495 36,000 -293 Level Albuquerque Center
Sat 06:43:01 PM 34.6278 -110.0728 245° Southwest 430 495 35,400 -1,756 Descending Albuquerque Center
Sat 06:44:02 PM 34.5744 -110.2236 247° West 433 498 32,400 -2,390 Descending Albuquerque Center
Sat 06:45:04 PM 34.5258 -110.3436 244° Southwest 422 486 30,500 -1,707 Descending Albuquerque Center
Sat 06:46:05 PM 34.4806 -110.4733 247° West 416 479 28,900 -1,610 Descending Albuquerque Center
Sat 06:47:07 PM 34.4375 -110.5906 246° West 390 449 27,200 -1,742 Descending Albuquerque Center
Sat 06:48:09 PM 34.3906 -110.7100 245° Southwest 389 448 25,300 -1,854 Descending Albuquerque Center
Sat 06:49:10 PM 34.3364 -110.8233 240° Southwest 390 449 23,400 -1,854 Descending Albuquerque Center
Sat 06:50:12 PM 34.2622 -110.9142 225° Southwest 383 441 21,500 -1,951 Descending Albuquerque Center
Sat 06:51:13 PM 34.1781 -111.0222 227° Southwest 373 429 19,400 -1,951 Descending Albuquerque Center
Sat 06:52:15 PM 34.1119 -111.1083 227° Southwest 357 411 17,500 -1,707 Descending Albuquerque Center
Sat 06:53:16 PM 34.0467 -111.1933 227° Southwest 351 404 15,900 -1,610 Descending Albuquerque Center
Sat 06:54:18 PM 33.9822 -111.2753 227° Southwest 342 394 14,200 -1,610 Descending Albuquerque Center
Sat 06:55:19 PM 33.9203 -111.3556 227° Southwest 329 379 12,600 -1,268 Descending Albuquerque Center
Sat 06:56:21 PM 33.8575 -111.4275 224° Southwest 311 358 11,600 -927 Descending Albuquerque Center
Sat 06:57:22 PM 33.7886 -111.4839 214° Southwest 302 348 10,700 -1,073 Descending Albuquerque Center
Sat 06:58:24 PM 33.7225 -111.5408 216° Southwest 293 337 9,400 -927 Descending Albuquerque Center
Sat 06:59:25 PM 33.6600 -111.5947 216° Southwest 279 321 8,800 -780 Descending Albuquerque Center
Sat 07:00:27 PM 33.6017 -111.6436 215° Southwest 259 298 7,800 -1,122 Descending Albuquerque Center
Sat 07:01:28 PM 33.5369 -111.7022 217° Southwest 244 281 6,500 -1,073 Descending Albuquerque Center
Sat 07:02:30 PM 33.4911 -111.7572 225° Southwest 238 274 5,600 -1,073 Descending Albuquerque Center
Sat 07:03:31 PM 33.4461 -111.8075 223° Southwest 224 258 4,300 -1,113 Descending Albuquerque Center
Sat 07:04:34 PM 33.4408 -111.8647 264° West 179 206 3,300 -1,069 Descending Albuquerque Center
Sat 07:05:12 PM 33.4333 -111.9000 256° West 164 189 2,500 -970 Descending Phoenix TRACON
Sat 07:06:13 PM 33.4333 -111.9667 270° West 162 186 1,700 -787 Descending Phoenix TRACON
Sat 07:09:00 PM 33.4343 -112.0116 270° West  Level Estimated

Login

Don't have an account? Register now (free) for customized features, flight alerts, and more!